sensor_id;sensor_type;location;lat;lon;timestamp;temperature;humidity
44229;DHT22;29904;51.058;5.378;2024-03-17T00:01:55;6.60;99.90
44229;DHT22;29904;51.058;5.378;2024-03-17T00:04:22;6.60;99.90
44229;DHT22;29904;51.058;5.378;2024-03-17T00:06:47;6.70;99.90
44229;DHT22;29904;51.058;5.378;2024-03-17T00:09:13;6.70;99.90
44229;DHT22;29904;51.058;5.378;2024-03-17T00:11:39;6.70;99.90
44229;DHT22;29904;51.058;5.378;2024-03-17T00:14:05;6.70;99.90
44229;DHT22;29904;51.058;5.378;2024-03-17T00:16:30;6.70;99.90
44229;DHT22;29904;51.058;5.378;2024-03-17T00:18:56;6.70;99.90
44229;DHT22;29904;51.058;5.378;2024-03-17T00:21:22;6.70;99.90
44229;DHT22;29904;51.058;5.378;2024-03-17T00:23:48;6.70;99.90
44229;DHT22;29904;51.058;5.378;2024-03-17T00:26:15;6.70;99.90
44229;DHT22;29904;51.058;5.378;2024-03-17T00:28:40;6.70;99.90
44229;DHT22;29904;51.058;5.378;2024-03-17T00:31:06;6.70;99.90
44229;DHT22;29904;51.058;5.378;2024-03-17T00:33:35;6.70;99.90
44229;DHT22;29904;51.058;5.378;2024-03-17T00:36:01;6.70;99.90
44229;DHT22;29904;51.058;5.378;2024-03-17T00:38:26;6.60;99.90
44229;DHT22;29904;51.058;5.378;2024-03-17T00:40:54;6.60;99.90
44229;DHT22;29904;51.058;5.378;2024-03-17T00:43:20;6.50;99.90
44229;DHT22;29904;51.058;5.378;2024-03-17T00:45:52;6.50;99.90
44229;DHT22;29904;51.058;5.378;2024-03-17T00:48:17;6.40;99.90
44229;DHT22;29904;51.058;5.378;2024-03-17T00:50:43;6.40;99.90
44229;DHT22;29904;51.058;5.378;2024-03-17T00:53:10;6.30;99.90
44229;DHT22;29904;51.058;5.378;2024-03-17T00:55:37;6.30;99.90
44229;DHT22;29904;51.058;5.378;2024-03-17T00:58:03;6.20;99.90
44229;DHT22;29904;51.058;5.378;2024-03-17T01:00:29;6.20;99.90
44229;DHT22;29904;51.058;5.378;2024-03-17T01:02:55;6.20;99.90
44229;DHT22;29904;51.058;5.378;2024-03-17T01:05:21;6.10;99.90
44229;DHT22;29904;51.058;5.378;2024-03-17T01:07:47;6.10;99.90
44229;DHT22;29904;51.058;5.378;2024-03-17T01:10:15;6.00;99.90
44229;DHT22;29904;51.058;5.378;2024-03-17T01:12:40;6.00;99.90
44229;DHT22;29904;51.058;5.378;2024-03-17T01:15:06;5.90;99.90
44229;DHT22;29904;51.058;5.378;2024-03-17T01:17:32;5.90;99.90
44229;DHT22;29904;51.058;5.378;2024-03-17T01:19:58;5.80;99.90
44229;DHT22;29904;51.058;5.378;2024-03-17T01:22:23;5.80;99.90
44229;DHT22;29904;51.058;5.378;2024-03-17T01:24:49;5.70;99.90
44229;DHT22;29904;51.058;5.378;2024-03-17T01:27:14;5.70;99.90
44229;DHT22;29904;51.058;5.378;2024-03-17T01:29:44;5.80;99.90
44229;DHT22;29904;51.058;5.378;2024-03-17T01:32:11;5.80;99.90
44229;DHT22;29904;51.058;5.378;2024-03-17T01:34:37;5.80;99.90
44229;DHT22;29904;51.058;5.378;2024-03-17T01:37:03;5.90;99.90
44229;DHT22;29904;51.058;5.378;2024-03-17T01:39:30;5.80;99.90
44229;DHT22;29904;51.058;5.378;2024-03-17T01:42:00;5.90;99.90
44229;DHT22;29904;51.058;5.378;2024-03-17T01:44:26;6.00;99.90
44229;DHT22;29904;51.058;5.378;2024-03-17T01:46:53;6.10;99.90
44229;DHT22;29904;51.058;5.378;2024-03-17T01:49:19;6.10;99.90
44229;DHT22;29904;51.058;5.378;2024-03-17T01:51:45;6.20;99.90
44229;DHT22;29904;51.058;5.378;2024-03-17T01:54:13;6.20;99.90
44229;DHT22;29904;51.058;5.378;2024-03-17T01:56:39;6.30;99.90
44229;DHT22;29904;51.058;5.378;2024-03-17T01:59:05;6.40;99.90
44229;DHT22;29904;51.058;5.378;2024-03-17T02:01:34;6.50;99.90
44229;DHT22;29904;51.058;5.378;2024-03-17T02:03:59;6.50;99.90
44229;DHT22;29904;51.058;5.378;2024-03-17T02:06:25;6.60;99.90
44229;DHT22;29904;51.058;5.378;2024-03-17T02:08:51;6.60;99.90
44229;DHT22;29904;51.058;5.378;2024-03-17T02:11:24;6.60;99.90
44229;DHT22;29904;51.058;5.378;2024-03-17T02:13:50;6.70;99.90
44229;DHT22;29904;51.058;5.378;2024-03-17T02:16:15;6.70;99.90
44229;DHT22;29904;51.058;5.378;2024-03-17T02:18:42;6.80;99.90
44229;DHT22;29904;51.058;5.378;2024-03-17T02:21:07;6.80;99.90
44229;DHT22;29904;51.058;5.378;2024-03-17T02:23:34;6.90;99.90
44229;DHT22;29904;51.058;5.378;2024-03-17T02:26:00;6.90;99.90
44229;DHT22;29904;51.058;5.378;2024-03-17T02:28:25;6.90;99.90
44229;DHT22;29904;51.058;5.378;2024-03-17T02:30:53;7.00;99.90
44229;DHT22;29904;51.058;5.378;2024-03-17T02:33:18;7.00;99.90
44229;DHT22;29904;51.058;5.378;2024-03-17T02:35:48;7.00;99.90
44229;DHT22;29904;51.058;5.378;2024-03-17T02:38:17;7.10;99.90
44229;DHT22;29904;51.058;5.378;2024-03-17T02:41:05;7.10;99.90
44229;DHT22;29904;51.058;5.378;2024-03-17T02:43:31;7.20;99.90
44229;DHT22;29904;51.058;5.378;2024-03-17T02:45:56;7.20;99.90
44229;DHT22;29904;51.058;5.378;2024-03-17T02:48:22;7.20;99.90
44229;DHT22;29904;51.058;5.378;2024-03-17T02:50:50;7.20;99.90
44229;DHT22;29904;51.058;5.378;2024-03-17T02:53:16;7.30;99.90
44229;DHT22;29904;51.058;5.378;2024-03-17T02:55:41;7.30;99.90
44229;DHT22;29904;51.058;5.378;2024-03-17T02:58:07;7.30;99.90
44229;DHT22;29904;51.058;5.378;2024-03-17T03:00:32;7.30;99.90
44229;DHT22;29904;51.058;5.378;2024-03-17T03:02:58;7.30;99.90
44229;DHT22;29904;51.058;5.378;2024-03-17T03:05:25;7.30;99.90
44229;DHT22;29904;51.058;5.378;2024-03-17T03:07:51;7.30;99.90
44229;DHT22;29904;51.058;5.378;2024-03-17T03:10:17;7.30;99.90
44229;DHT22;29904;51.058;5.378;2024-03-17T03:12:43;7.30;99.90
44229;DHT22;29904;51.058;5.378;2024-03-17T03:15:08;7.30;99.90
44229;DHT22;29904;51.058;5.378;2024-03-17T03:17:34;7.40;99.90
44229;DHT22;29904;51.058;5.378;2024-03-17T03:20:01;7.40;99.90
44229;DHT22;29904;51.058;5.378;2024-03-17T03:22:27;7.40;99.90
44229;DHT22;29904;51.058;5.378;2024-03-17T03:24:52;7.40;99.90
44229;DHT22;29904;51.058;5.378;2024-03-17T03:27:18;7.30;99.90
44229;DHT22;29904;51.058;5.378;2024-03-17T03:29:44;7.20;99.90
44229;DHT22;29904;51.058;5.378;2024-03-17T03:32:09;7.10;99.90
44229;DHT22;29904;51.058;5.378;2024-03-17T03:34:35;7.00;99.90
44229;DHT22;29904;51.058;5.378;2024-03-17T03:37:00;6.90;99.90
44229;DHT22;29904;51.058;5.378;2024-03-17T03:39:26;6.80;99.90
44229;DHT22;29904;51.058;5.378;2024-03-17T03:41:57;6.80;99.90
44229;DHT22;29904;51.058;5.378;2024-03-17T03:44:22;6.70;99.90
44229;DHT22;29904;51.058;5.378;2024-03-17T03:46:48;6.60;99.90
44229;DHT22;29904;51.058;5.378;2024-03-17T03:49:14;6.50;99.90
44229;DHT22;29904;51.058;5.378;2024-03-17T03:51:41;6.40;99.90
44229;DHT22;29904;51.058;5.378;2024-03-17T03:54:07;6.40;99.90
44229;DHT22;29904;51.058;5.378;2024-03-17T03:56:33;6.30;99.90
44229;DHT22;29904;51.058;5.378;2024-03-17T03:58:59;6.30;99.90
44229;DHT22;29904;51.058;5.378;2024-03-17T04:01:25;6.20;99.90
44229;DHT22;29904;51.058;5.378;2024-03-17T04:03:50;6.20;99.90
44229;DHT22;29904;51.058;5.378;2024-03-17T04:06:17;6.10;99.90
44229;DHT22;29904;51.058;5.378;2024-03-17T04:08:43;6.10;99.90
44229;DHT22;29904;51.058;5.378;2024-03-17T04:11:09;6.10;99.90
44229;DHT22;29904;51.058;5.378;2024-03-17T04:13:35;6.10;99.90
44229;DHT22;29904;51.058;5.378;2024-03-17T04:16:01;6.10;99.90
44229;DHT22;29904;51.058;5.378;2024-03-17T04:18:30;6.20;99.90
44229;DHT22;29904;51.058;5.378;2024-03-17T04:20:56;6.30;99.90
44229;DHT22;29904;51.058;5.378;2024-03-17T04:23:23;6.40;99.90
44229;DHT22;29904;51.058;5.378;2024-03-17T04:25:49;6.40;99.90
44229;DHT22;29904;51.058;5.378;2024-03-17T04:28:15;6.50;99.90
44229;DHT22;29904;51.058;5.378;2024-03-17T04:30:41;6.80;99.90
44229;DHT22;29904;51.058;5.378;2024-03-17T04:33:08;6.80;99.90
44229;DHT22;29904;51.058;5.378;2024-03-17T04:35:37;6.90;99.90
44229;DHT22;29904;51.058;5.378;2024-03-17T04:38:02;7.00;99.90
44229;DHT22;29904;51.058;5.378;2024-03-17T04:40:34;7.00;99.90
44229;DHT22;29904;51.058;5.378;2024-03-17T04:42:59;7.00;99.90
44229;DHT22;29904;51.058;5.378;2024-03-17T04:45:25;7.10;99.90
44229;DHT22;29904;51.058;5.378;2024-03-17T04:47:51;7.10;99.90
44229;DHT22;29904;51.058;5.378;2024-03-17T04:50:17;7.10;99.90
44229;DHT22;29904;51.058;5.378;2024-03-17T04:52:42;7.10;99.90
44229;DHT22;29904;51.058;5.378;2024-03-17T04:55:10;7.20;99.90
44229;DHT22;29904;51.058;5.378;2024-03-17T04:57:35;7.20;99.90
44229;DHT22;29904;51.058;5.378;2024-03-17T05:00:01;7.20;99.90
44229;DHT22;29904;51.058;5.378;2024-03-17T05:02:32;7.30;99.90
44229;DHT22;29904;51.058;5.378;2024-03-17T05:04:58;7.30;99.90
44229;DHT22;29904;51.058;5.378;2024-03-17T05:07:24;7.30;99.90
44229;DHT22;29904;51.058;5.378;2024-03-17T05:09:52;7.30;99.90
44229;DHT22;29904;51.058;5.378;2024-03-17T05:12:17;7.30;99.90
44229;DHT22;29904;51.058;5.378;2024-03-17T05:14:43;7.30;99.90
44229;DHT22;29904;51.058;5.378;2024-03-17T05:17:10;7.40;99.90
44229;DHT22;29904;51.058;5.378;2024-03-17T05:19:35;7.40;99.90
44229;DHT22;29904;51.058;5.378;2024-03-17T05:22:01;7.30;99.90
44229;DHT22;29904;51.058;5.378;2024-03-17T05:24:27;7.30;99.90
44229;DHT22;29904;51.058;5.378;2024-03-17T05:26:52;7.30;99.90
44229;DHT22;29904;51.058;5.378;2024-03-17T05:29:18;7.30;99.90
44229;DHT22;29904;51.058;5.378;2024-03-17T05:31:44;7.30;99.90
44229;DHT22;29904;51.058;5.378;2024-03-17T05:34:10;7.20;99.90
44229;DHT22;29904;51.058;5.378;2024-03-17T05:36:36;7.10;99.90
44229;DHT22;29904;51.058;5.378;2024-03-17T05:39:01;7.00;99.90
44229;DHT22;29904;51.058;5.378;2024-03-17T05:41:27;7.00;99.90
44229;DHT22;29904;51.058;5.378;2024-03-17T05:43:53;6.90;99.90
44229;DHT22;29904;51.058;5.378;2024-03-17T05:46:23;6.90;99.90
44229;DHT22;29904;51.058;5.378;2024-03-17T05:48:51;6.80;99.90
44229;DHT22;29904;51.058;5.378;2024-03-17T05:51:16;6.80;99.90
44229;DHT22;29904;51.058;5.378;2024-03-17T05:53:42;6.70;99.90
44229;DHT22;29904;51.058;5.378;2024-03-17T05:56:11;6.60;99.90
44229;DHT22;29904;51.058;5.378;2024-03-17T05:58:41;6.60;99.90
44229;DHT22;29904;51.058;5.378;2024-03-17T06:01:08;6.60;99.90
44229;DHT22;29904;51.058;5.378;2024-03-17T06:03:34;6.70;99.90
44229;DHT22;29904;51.058;5.378;2024-03-17T06:06:01;6.80;99.90
44229;DHT22;29904;51.058;5.378;2024-03-17T06:08:27;6.80;99.90
44229;DHT22;29904;51.058;5.378;2024-03-17T06:10:52;6.80;99.90
44229;DHT22;29904;51.058;5.378;2024-03-17T06:13:18;6.80;99.90
44229;DHT22;29904;51.058;5.378;2024-03-17T06:15:44;6.90;99.90
44229;DHT22;29904;51.058;5.378;2024-03-17T06:18:11;7.00;99.90
44229;DHT22;29904;51.058;5.378;2024-03-17T06:20:40;7.10;99.90
44229;DHT22;29904;51.058;5.378;2024-03-17T06:23:07;7.30;99.90
44229;DHT22;29904;51.058;5.378;2024-03-17T06:25:37;7.20;99.90
44229;DHT22;29904;51.058;5.378;2024-03-17T06:28:03;7.30;99.90
44229;DHT22;29904;51.058;5.378;2024-03-17T06:30:29;7.60;99.90
44229;DHT22;29904;51.058;5.378;2024-03-17T06:32:54;8.10;99.90
44229;DHT22;29904;51.058;5.378;2024-03-17T06:35:22;8.60;99.90
44229;DHT22;29904;51.058;5.378;2024-03-17T06:37:51;9.20;99.90
44229;DHT22;29904;51.058;5.378;2024-03-17T06:40:17;9.70;99.90
44229;DHT22;29904;51.058;5.378;2024-03-17T06:42:43;10.10;99.90
44229;DHT22;29904;51.058;5.378;2024-03-17T06:45:10;10.50;99.90
44229;DHT22;29904;51.058;5.378;2024-03-17T06:47:36;10.60;99.90
44229;DHT22;29904;51.058;5.378;2024-03-17T06:50:02;10.30;99.90
44229;DHT22;29904;51.058;5.378;2024-03-17T06:52:30;10.10;99.90
44229;DHT22;29904;51.058;5.378;2024-03-17T06:54:58;9.90;99.90
44229;DHT22;29904;51.058;5.378;2024-03-17T06:57:24;9.80;99.90
44229;DHT22;29904;51.058;5.378;2024-03-17T06:59:52;9.70;99.90
44229;DHT22;29904;51.058;5.378;2024-03-17T07:02:17;9.70;99.90
44229;DHT22;29904;51.058;5.378;2024-03-17T07:04:45;9.70;99.90
44229;DHT22;29904;51.058;5.378;2024-03-17T07:07:12;9.70;99.90
44229;DHT22;29904;51.058;5.378;2024-03-17T07:09:38;9.70;99.90
44229;DHT22;29904;51.058;5.378;2024-03-17T07:12:05;9.70;99.90
44229;DHT22;29904;51.058;5.378;2024-03-17T07:14:31;9.60;99.90
44229;DHT22;29904;51.058;5.378;2024-03-17T07:16:57;9.50;99.90
44229;DHT22;29904;51.058;5.378;2024-03-17T07:19:22;9.50;99.90
44229;DHT22;29904;51.058;5.378;2024-03-17T07:21:48;9.50;99.90
44229;DHT22;29904;51.058;5.378;2024-03-17T07:24:13;9.50;99.90
44229;DHT22;29904;51.058;5.378;2024-03-17T07:26:39;9.50;99.90
44229;DHT22;29904;51.058;5.378;2024-03-17T07:29:04;9.60;99.90
44229;DHT22;29904;51.058;5.378;2024-03-17T07:31:31;9.60;99.90
44229;DHT22;29904;51.058;5.378;2024-03-17T07:33:57;9.60;99.90
44229;DHT22;29904;51.058;5.378;2024-03-17T07:36:22;9.50;99.90
44229;DHT22;29904;51.058;5.378;2024-03-17T07:38:48;9.50;99.90
44229;DHT22;29904;51.058;5.378;2024-03-17T07:41:14;9.50;99.90
44229;DHT22;29904;51.058;5.378;2024-03-17T07:43:40;9.60;99.90
44229;DHT22;29904;51.058;5.378;2024-03-17T07:46:10;9.80;99.90
44229;DHT22;29904;51.058;5.378;2024-03-17T07:48:40;9.90;99.90
44229;DHT22;29904;51.058;5.378;2024-03-17T07:51:06;9.90;99.90
44229;DHT22;29904;51.058;5.378;2024-03-17T07:53:34;9.90;99.90
44229;DHT22;29904;51.058;5.378;2024-03-17T07:56:00;9.90;99.90
44229;DHT22;29904;51.058;5.378;2024-03-17T07:58:26;9.90;99.90
44229;DHT22;29904;51.058;5.378;2024-03-17T08:00:52;9.90;99.90
44229;DHT22;29904;51.058;5.378;2024-03-17T08:03:18;10.10;99.90
44229;DHT22;29904;51.058;5.378;2024-03-17T08:05:49;10.20;99.90
44229;DHT22;29904;51.058;5.378;2024-03-17T08:08:15;10.40;99.90
44229;DHT22;29904;51.058;5.378;2024-03-17T08:10:41;10.70;99.90
44229;DHT22;29904;51.058;5.378;2024-03-17T08:13:09;11.00;99.90
44229;DHT22;29904;51.058;5.378;2024-03-17T08:15:36;11.10;99.90
44229;DHT22;29904;51.058;5.378;2024-03-17T08:18:02;11.10;99.90
44229;DHT22;29904;51.058;5.378;2024-03-17T08:20:29;11.00;99.90
44229;DHT22;29904;51.058;5.378;2024-03-17T08:22:55;11.00;99.90
44229;DHT22;29904;51.058;5.378;2024-03-17T08:25:20;11.00;99.90
44229;DHT22;29904;51.058;5.378;2024-03-17T08:27:46;11.00;99.90
44229;DHT22;29904;51.058;5.378;2024-03-17T08:30:12;11.20;99.90
44229;DHT22;29904;51.058;5.378;2024-03-17T08:32:38;11.30;99.90
44229;DHT22;29904;51.058;5.378;2024-03-17T08:35:06;11.30;99.90
44229;DHT22;29904;51.058;5.378;2024-03-17T08:37:31;11.30;99.90
44229;DHT22;29904;51.058;5.378;2024-03-17T08:39:57;11.30;99.90
44229;DHT22;29904;51.058;5.378;2024-03-17T08:42:23;11.30;99.90
44229;DHT22;29904;51.058;5.378;2024-03-17T08:44:48;11.20;99.90
44229;DHT22;29904;51.058;5.378;2024-03-17T08:47:14;11.20;99.90
44229;DHT22;29904;51.058;5.378;2024-03-17T08:49:39;11.20;99.90
44229;DHT22;29904;51.058;5.378;2024-03-17T08:52:07;11.30;99.90
44229;DHT22;29904;51.058;5.378;2024-03-17T08:54:32;11.30;99.90
44229;DHT22;29904;51.058;5.378;2024-03-17T08:56:58;11.60;99.90
44229;DHT22;29904;51.058;5.378;2024-03-17T08:59:24;11.70;99.90
44229;DHT22;29904;51.058;5.378;2024-03-17T09:01:49;11.90;99.90
44229;DHT22;29904;51.058;5.378;2024-03-17T09:04:15;12.00;99.90
44229;DHT22;29904;51.058;5.378;2024-03-17T09:06:40;12.10;99.90
44229;DHT22;29904;51.058;5.378;2024-03-17T09:09:07;12.20;99.90
44229;DHT22;29904;51.058;5.378;2024-03-17T09:11:34;12.40;99.90
44229;DHT22;29904;51.058;5.378;2024-03-17T09:13:59;12.60;99.90
44229;DHT22;29904;51.058;5.378;2024-03-17T09:16:26;12.80;99.90
44229;DHT22;29904;51.058;5.378;2024-03-17T09:18:53;13.10;99.90
44229;DHT22;29904;51.058;5.378;2024-03-17T09:21:19;13.20;99.90
44229;DHT22;29904;51.058;5.378;2024-03-17T09:23:47;13.30;99.90
44229;DHT22;29904;51.058;5.378;2024-03-17T09:26:13;13.40;99.90
44229;DHT22;29904;51.058;5.378;2024-03-17T09:28:42;13.70;99.90
44229;DHT22;29904;51.058;5.378;2024-03-17T09:31:10;13.90;99.90
44229;DHT22;29904;51.058;5.378;2024-03-17T09:33:36;14.20;99.90
44229;DHT22;29904;51.058;5.378;2024-03-17T09:36:05;14.50;99.90
44229;DHT22;29904;51.058;5.378;2024-03-17T09:38:31;14.70;99.90
44229;DHT22;29904;51.058;5.378;2024-03-17T09:40:57;14.90;99.90
44229;DHT22;29904;51.058;5.378;2024-03-17T09:43:25;15.10;99.90
44229;DHT22;29904;51.058;5.378;2024-03-17T09:45:51;15.20;99.90
44229;DHT22;29904;51.058;5.378;2024-03-17T09:48:22;15.20;99.90
44229;DHT22;29904;51.058;5.378;2024-03-17T09:50:52;15.20;99.90
44229;DHT22;29904;51.058;5.378;2024-03-17T09:53:23;15.20;99.90
44229;DHT22;29904;51.058;5.378;2024-03-17T09:55:49;15.20;99.90
44229;DHT22;29904;51.058;5.378;2024-03-17T09:58:15;15.10;99.90
44229;DHT22;29904;51.058;5.378;2024-03-17T10:00:41;15.10;99.90
44229;DHT22;29904;51.058;5.378;2024-03-17T10:03:06;15.10;99.90
44229;DHT22;29904;51.058;5.378;2024-03-17T10:05:32;15.30;99.90
44229;DHT22;29904;51.058;5.378;2024-03-17T10:07:58;15.50;99.90
44229;DHT22;29904;51.058;5.378;2024-03-17T10:10:23;15.50;99.90
44229;DHT22;29904;51.058;5.378;2024-03-17T10:12:50;15.70;99.90
44229;DHT22;29904;51.058;5.378;2024-03-17T10:15:18;15.90;99.90
44229;DHT22;29904;51.058;5.378;2024-03-17T10:17:44;16.10;99.90
44229;DHT22;29904;51.058;5.378;2024-03-17T10:20:11;16.20;99.90
44229;DHT22;29904;51.058;5.378;2024-03-17T10:22:37;16.40;99.90
44229;DHT22;29904;51.058;5.378;2024-03-17T10:25:03;16.20;99.90
44229;DHT22;29904;51.058;5.378;2024-03-17T10:27:28;16.20;99.90
44229;DHT22;29904;51.058;5.378;2024-03-17T10:29:54;16.30;99.90
44229;DHT22;29904;51.058;5.378;2024-03-17T10:32:21;16.30;99.90
44229;DHT22;29904;51.058;5.378;2024-03-17T10:34:49;16.30;99.90
44229;DHT22;29904;51.058;5.378;2024-03-17T10:39:41;16.00;99.90
44229;DHT22;29904;51.058;5.378;2024-03-17T10:42:11;16.00;99.90
44229;DHT22;29904;51.058;5.378;2024-03-17T10:44:40;16.10;99.90
44229;DHT22;29904;51.058;5.378;2024-03-17T10:47:07;16.10;99.90
44229;DHT22;29904;51.058;5.378;2024-03-17T10:49:36;16.00;99.90
44229;DHT22;29904;51.058;5.378;2024-03-17T10:52:03;15.90;99.90
44229;DHT22;29904;51.058;5.378;2024-03-17T10:54:33;15.90;99.90
44229;DHT22;29904;51.058;5.378;2024-03-17T10:57:13;15.80;99.90
44229;DHT22;29904;51.058;5.378;2024-03-17T10:59:42;15.90;99.90
44229;DHT22;29904;51.058;5.378;2024-03-17T11:02:20;15.90;99.90
44229;DHT22;29904;51.058;5.378;2024-03-17T11:04:49;16.00;99.90
44229;DHT22;29904;51.058;5.378;2024-03-17T11:07:15;15.80;99.90
44229;DHT22;29904;51.058;5.378;2024-03-17T11:09:42;15.70;99.90
44229;DHT22;29904;51.058;5.378;2024-03-17T11:15:20;15.60;99.90
44229;DHT22;29904;51.058;5.378;2024-03-17T11:17:39;15.60;99.90
44229;DHT22;29904;51.058;5.378;2024-03-17T11:20:17;15.50;99.90
44229;DHT22;29904;51.058;5.378;2024-03-17T11:22:44;15.60;99.90
44229;DHT22;29904;51.058;5.378;2024-03-17T11:27:54;15.40;99.90
44229;DHT22;29904;51.058;5.378;2024-03-17T11:33:06;15.40;99.90
44229;DHT22;29904;51.058;5.378;2024-03-17T11:35:51;15.40;99.90
44229;DHT22;29904;51.058;5.378;2024-03-17T11:43:45;15.60;99.90
44229;DHT22;29904;51.058;5.378;2024-03-17T11:46:10;15.50;99.90
44229;DHT22;29904;51.058;5.378;2024-03-17T11:48:36;15.50;99.90
44229;DHT22;29904;51.058;5.378;2024-03-17T11:51:02;15.60;99.90
44229;DHT22;29904;51.058;5.378;2024-03-17T11:53:29;15.40;99.90
44229;DHT22;29904;51.058;5.378;2024-03-17T11:55:55;15.30;99.90
44229;DHT22;29904;51.058;5.378;2024-03-17T11:58:20;15.30;99.90
44229;DHT22;29904;51.058;5.378;2024-03-17T12:00:56;15.20;99.90
44229;DHT22;29904;51.058;5.378;2024-03-17T12:03:22;15.10;99.90
44229;DHT22;29904;51.058;5.378;2024-03-17T12:05:47;15.10;99.90
44229;DHT22;29904;51.058;5.378;2024-03-17T12:08:20;15.20;99.90
44229;DHT22;29904;51.058;5.378;2024-03-17T12:10:48;15.10;99.90
44229;DHT22;29904;51.058;5.378;2024-03-17T12:13:14;15.10;99.90
44229;DHT22;29904;51.058;5.378;2024-03-17T12:15:40;15.10;99.90
44229;DHT22;29904;51.058;5.378;2024-03-17T12:18:19;15.00;99.90
44229;DHT22;29904;51.058;5.378;2024-03-17T12:20:47;15.00;99.90
44229;DHT22;29904;51.058;5.378;2024-03-17T12:23:13;15.00;99.90
44229;DHT22;29904;51.058;5.378;2024-03-17T12:25:42;15.20;99.90
44229;DHT22;29904;51.058;5.378;2024-03-17T12:28:14;15.40;99.90
44229;DHT22;29904;51.058;5.378;2024-03-17T12:30:40;15.60;99.90
44229;DHT22;29904;51.058;5.378;2024-03-17T12:33:07;15.80;99.90
44229;DHT22;29904;51.058;5.378;2024-03-17T12:35:36;16.00;99.90
44229;DHT22;29904;51.058;5.378;2024-03-17T12:38:01;16.10;99.90
44229;DHT22;29904;51.058;5.378;2024-03-17T12:40:27;16.10;99.90
44229;DHT22;29904;51.058;5.378;2024-03-17T12:42:54;16.20;99.90
44229;DHT22;29904;51.058;5.378;2024-03-17T12:45:23;16.20;99.90
44229;DHT22;29904;51.058;5.378;2024-03-17T12:47:49;16.20;99.90
44229;DHT22;29904;51.058;5.378;2024-03-17T12:50:16;16.30;99.90
44229;DHT22;29904;51.058;5.378;2024-03-17T12:52:51;16.30;99.90
44229;DHT22;29904;51.058;5.378;2024-03-17T12:55:20;16.50;99.90
44229;DHT22;29904;51.058;5.378;2024-03-17T13:00:58;16.70;99.90
44229;DHT22;29904;51.058;5.378;2024-03-17T13:03:25;16.70;99.90
44229;DHT22;29904;51.058;5.378;2024-03-17T13:05:51;16.70;99.90
44229;DHT22;29904;51.058;5.378;2024-03-17T13:08:17;16.70;99.90
44229;DHT22;29904;51.058;5.378;2024-03-17T13:10:43;16.70;99.90
44229;DHT22;29904;51.058;5.378;2024-03-17T13:13:09;16.80;99.90
44229;DHT22;29904;51.058;5.378;2024-03-17T13:15:34;16.80;99.90
44229;DHT22;29904;51.058;5.378;2024-03-17T13:18:03;16.80;99.90
44229;DHT22;29904;51.058;5.378;2024-03-17T13:20:29;16.80;99.90
44229;DHT22;29904;51.058;5.378;2024-03-17T13:22:55;16.90;99.90
44229;DHT22;29904;51.058;5.378;2024-03-17T13:25:21;16.90;99.90
44229;DHT22;29904;51.058;5.378;2024-03-17T13:27:49;16.90;99.90
44229;DHT22;29904;51.058;5.378;2024-03-17T13:30:15;16.90;99.90
44229;DHT22;29904;51.058;5.378;2024-03-17T13:32:41;16.90;99.90
44229;DHT22;29904;51.058;5.378;2024-03-17T13:35:21;16.90;99.90
44229;DHT22;29904;51.058;5.378;2024-03-17T13:37:48;17.00;99.90
44229;DHT22;29904;51.058;5.378;2024-03-17T13:40:14;17.10;99.90
44229;DHT22;29904;51.058;5.378;2024-03-17T13:42:44;17.00;99.90
44229;DHT22;29904;51.058;5.378;2024-03-17T13:45:11;16.80;99.90
44229;DHT22;29904;51.058;5.378;2024-03-17T13:47:36;16.70;99.90
44229;DHT22;29904;51.058;5.378;2024-03-17T13:50:02;16.60;99.90
44229;DHT22;29904;51.058;5.378;2024-03-17T13:52:32;16.50;99.90
44229;DHT22;29904;51.058;5.378;2024-03-17T13:54:58;16.60;99.90
44229;DHT22;29904;51.058;5.378;2024-03-17T13:57:24;16.70;99.90
44229;DHT22;29904;51.058;5.378;2024-03-17T13:59:50;16.60;99.90
44229;DHT22;29904;51.058;5.378;2024-03-17T14:02:17;16.60;99.90
44229;DHT22;29904;51.058;5.378;2024-03-17T14:04:43;16.70;99.90
44229;DHT22;29904;51.058;5.378;2024-03-17T14:07:09;17.20;99.90
44229;DHT22;29904;51.058;5.378;2024-03-17T14:09:35;17.70;99.90
44229;DHT22;29904;51.058;5.378;2024-03-17T14:12:00;18.00;99.90
44229;DHT22;29904;51.058;5.378;2024-03-17T14:14:26;18.30;99.90
44229;DHT22;29904;51.058;5.378;2024-03-17T14:16:52;18.30;99.90
44229;DHT22;29904;51.058;5.378;2024-03-17T14:19:18;18.30;99.90
44229;DHT22;29904;51.058;5.378;2024-03-17T14:21:44;18.40;99.90
44229;DHT22;29904;51.058;5.378;2024-03-17T14:24:10;18.40;99.90
44229;DHT22;29904;51.058;5.378;2024-03-17T14:26:35;18.30;99.90
44229;DHT22;29904;51.058;5.378;2024-03-17T14:29:02;18.20;99.90
44229;DHT22;29904;51.058;5.378;2024-03-17T14:31:31;18.10;99.90
44229;DHT22;29904;51.058;5.378;2024-03-17T14:33:57;17.90;99.90
44229;DHT22;29904;51.058;5.378;2024-03-17T14:36:22;17.80;99.90
44229;DHT22;29904;51.058;5.378;2024-03-17T14:38:52;17.50;99.90
44229;DHT22;29904;51.058;5.378;2024-03-17T14:41:18;17.30;99.90
44229;DHT22;29904;51.058;5.378;2024-03-17T14:43:44;17.20;99.90
44229;DHT22;29904;51.058;5.378;2024-03-17T14:46:11;17.00;99.90
44229;DHT22;29904;51.058;5.378;2024-03-17T14:48:42;16.80;99.90
44229;DHT22;29904;51.058;5.378;2024-03-17T14:51:08;16.80;99.90
44229;DHT22;29904;51.058;5.378;2024-03-17T14:53:34;16.70;99.90
44229;DHT22;29904;51.058;5.378;2024-03-17T14:56:02;16.60;99.90
44229;DHT22;29904;51.058;5.378;2024-03-17T14:58:27;16.50;99.90
44229;DHT22;29904;51.058;5.378;2024-03-17T15:00:53;16.50;99.90
44229;DHT22;29904;51.058;5.378;2024-03-17T15:03:18;16.50;99.90
44229;DHT22;29904;51.058;5.378;2024-03-17T15:05:44;16.50;99.90
44229;DHT22;29904;51.058;5.378;2024-03-17T15:08:09;16.50;99.90
44229;DHT22;29904;51.058;5.378;2024-03-17T15:10:36;16.40;99.90
44229;DHT22;29904;51.058;5.378;2024-03-17T15:13:02;16.30;99.90
44229;DHT22;29904;51.058;5.378;2024-03-17T15:15:28;16.20;99.90
44229;DHT22;29904;51.058;5.378;2024-03-17T15:17:53;16.20;99.90
44229;DHT22;29904;51.058;5.378;2024-03-17T15:20:19;16.20;99.90
44229;DHT22;29904;51.058;5.378;2024-03-17T15:22:47;16.10;99.90
44229;DHT22;29904;51.058;5.378;2024-03-17T15:25:14;16.10;99.90
44229;DHT22;29904;51.058;5.378;2024-03-17T15:27:43;16.00;99.90
44229;DHT22;29904;51.058;5.378;2024-03-17T15:30:13;16.10;99.90
44229;DHT22;29904;51.058;5.378;2024-03-17T15:32:40;16.00;99.90
44229;DHT22;29904;51.058;5.378;2024-03-17T15:35:06;16.00;99.90
44229;DHT22;29904;51.058;5.378;2024-03-17T15:37:32;16.00;99.90
44229;DHT22;29904;51.058;5.378;2024-03-17T15:39:58;16.00;99.90
44229;DHT22;29904;51.058;5.378;2024-03-17T15:42:24;16.10;99.90
44229;DHT22;29904;51.058;5.378;2024-03-17T15:44:49;16.10;99.90
44229;DHT22;29904;51.058;5.378;2024-03-17T15:47:16;16.10;99.90
44229;DHT22;29904;51.058;5.378;2024-03-17T15:49:41;16.00;99.90
44229;DHT22;29904;51.058;5.378;2024-03-17T15:52:07;16.00;99.90
44229;DHT22;29904;51.058;5.378;2024-03-17T15:54:33;15.90;99.90